This is the latest recevied weather packets stored in our database for station/object K8WEH. If no packets are shown the sender has not sent any weather packets the latest 1 day(s).
| Time | Temp. | Humidity | Pressure | Rain* | Wind** | Luminosity | Snow |
|---|---|---|---|---|---|---|---|
| 1836274702 | 16.67° C | 73% | 1019.5 hPa | 0 mm | 0 m/s | - | - |
| 1836274553 | 16.67° C | 73% | 1019.6 hPa | 0 mm | 0 m/s | - | - |
| 1836274404 | 16.67° C | 73% | 1019.5 hPa | 0 mm | 0 m/s | - | - |
| 1836274253 | 16.67° C | 73% | 1019.5 hPa | 0 mm | 0 m/s | - | - |
| 1836274102 | 16.67° C | 72% | 1019.5 hPa | 0 mm | 0 m/s | - | - |
| 1778051105 | 13.89° C | 41% | 1007 hPa | 3.81 mm | 0 m/s | - | - |
| 1778050804 | 13.89° C | 41% | 1007.2 hPa | 5.59 mm | 0 m/s | - | - |
| 1778050503 | 13.89° C | 41% | 1007.2 hPa | 6.1 mm | 0 m/s | - | - |
| 1778050203 | 13.89° C | 41% | 1007.4 hPa | 6.1 mm | 0 m/s | - | - |
| 1778049903 | 13.89° C | 41% | 1007.5 hPa | 5.59 mm | 0 m/s | - | - |
| 1778049602 | 13.89° C | 41% | 1007.5 hPa | 5.59 mm | 0 m/s | - | - |
| 1778049302 | 13.89° C | 41% | 1007.3 hPa | 5.33 mm | 0 m/s | - | - |
| 1778049002 | 13.89° C | 42% | 1007.3 hPa | 5.08 mm | 0 m/s | - | - |
| 1778048702 | 13.89° C | 42% | 1007.3 hPa | 5.08 mm | 0 m/s | - | - |
| 1778048401 | 13.89° C | 42% | 1007.4 hPa | 4.57 mm | 0 m/s | - | - |
| 1778048101 | 13.89° C | 42% | 1007.6 hPa | 4.57 mm | 0 m/s | - | - |
| 1778047861 | 13.89° C | 42% | 1007.7 hPa | 4.83 mm | 0 m/s | - | - |
| 1778047801 | 13.89° C | 42% | 1007.7 hPa | 4.83 mm | 0 m/s | - | - |
| 1778047574 | 13.89° C | 42% | 1007.5 hPa | 4.57 mm | 0 m/s | - | - |
| 1778047260 | 13.89° C | 43% | 1007.4 hPa | 2.54 mm | 0 m/s | - | - |
| 1778046958 | 13.89° C | 44% | 1007.6 hPa | 1.78 mm | 0 m/s | - | - |
| 1778046658 | 13.89° C | 44% | 1007.7 hPa | 1.78 mm | 0 m/s | - | - |
| 1778046369 | 13.89° C | 44% | 1007.6 hPa | 1.78 mm | 0 m/s | - | - |
| 1778046057 | 13.89° C | 44% | 1007.8 hPa | 1.27 mm | 0 m/s | - | - |
| 1778045757 | 13.89° C | 45% | 1007.8 hPa | 1.27 mm | 0 m/s | - | - |
* Rain latest hour (hover to see other rain measurements)
** Current wind speed in m/s (hover to see current wind gust speed)